Time;durP1;ratioP1;P1;durP2;ratioP2;P2;SDS_P1;SDS_P2;PMS_P1;PMS_P2;Temp;Humidity;BMP_temperature;BMP_pressure;BME280_temperature;BME280_humidity;BME280_pressure;Samples;Min_cycle;Max_cycle;Signal;HPM_P1;HPM_P2
2023/09/18 00:01:59;;;;;;;15.32;12.63;;;;;;;;;;5012451;28;20042;-71
2023/09/18 00:04:25;;;;;;;22.20;17.15;;;;;;;;;;5014050;28;20042;-71
2023/09/18 00:06:51;;;;;;;18.48;14.82;;;;;;;;;;5013759;28;20042;-71
2023/09/18 00:09:17;;;;;;;24.40;17.00;;;;;;;;;;5013658;28;20081;-71
2023/09/18 00:11:43;;;;;;;34.83;17.02;;;;;;;;;;5013555;28;20026;-71
2023/09/18 00:14:09;;;;;;;21.55;16.58;;;;;;;;;;5014051;28;20128;-71
2023/09/18 00:16:35;;;;;;;21.33;15.88;;;;;;;;;;5012224;28;20056;-71
2023/09/18 00:19:02;;;;;;;21.77;17.65;;;;;;;;;;5013455;28;20128;-71
2023/09/18 00:21:30;;;;;;;20.33;16.40;;;;;;;;;;5013354;28;20054;-71
2023/09/18 00:23:57;;;;;;;22.98;18.63;;;;;;;;;;5013941;28;20045;-71
2023/09/18 00:26:24;;;;;;;20.02;17.45;;;;;;;;;;5013602;28;20052;-71
2023/09/18 00:28:50;;;;;;;23.33;18.60;;;;;;;;;;5012342;28;20565;-71
2023/09/18 00:31:16;;;;;;;19.60;15.55;;;;;;;;;;5013110;28;20121;-71
2023/09/18 00:33:42;;;;;;;18.88;16.73;;;;;;;;;;5013689;28;20123;-71
2023/09/18 00:36:08;;;;;;;19.65;15.50;;;;;;;;;;5012994;28;20514;-71
2023/09/18 00:38:34;;;;;;;18.88;15.70;;;;;;;;;;5013195;28;20616;-71
2023/09/18 00:41:00;;;;;;;18.15;16.25;;;;;;;;;;5013225;28;20124;-71
2023/09/18 00:43:26;;;;;;;22.88;16.10;;;;;;;;;;5013456;28;20041;-71
2023/09/18 00:45:52;;;;;;;18.30;15.20;;;;;;;;;;5012446;28;20092;-71
2023/09/18 00:48:18;;;;;;;18.30;15.82;;;;;;;;;;5013144;28;20045;-71
2023/09/18 00:50:44;;;;;;;20.67;16.25;;;;;;;;;;5012943;28;20488;-71
2023/09/18 00:53:13;;;;;;;19.63;17.20;;;;;;;;;;5013432;28;20065;-71
2023/09/18 00:55:39;;;;;;;24.83;19.25;;;;;;;;;;5012236;28;20420;-71
2023/09/18 00:58:06;;;;;;;32.22;22.25;;;;;;;;;;5012829;28;20559;-71
2023/09/18 01:00:32;;;;;;;30.27;23.08;;;;;;;;;;5013149;28;20036;-71
2023/09/18 01:02:59;;;;;;;26.52;18.65;;;;;;;;;;5012659;28;20400;-72
2023/09/18 01:05:25;;;;;;;22.60;18.08;;;;;;;;;;5011031;28;20108;-71
2023/09/18 01:07:51;;;;;;;24.58;17.77;;;;;;;;;;5011322;28;20128;-71
2023/09/18 01:10:19;;;;;;;22.42;18.13;;;;;;;;;;5012517;28;20038;-71
2023/09/18 01:12:59;;;;;;;23.30;18.02;;;;;;;;;;5012781;28;20152;-71
2023/09/18 01:15:35;;;;;;;26.98;19.30;;;;;;;;;;5012687;28;20038;-71
2023/09/18 01:18:03;;;;;;;26.55;20.05;;;;;;;;;;5012034;28;20121;-72
2023/09/18 01:20:29;;;;;;;27.00;21.50;;;;;;;;;;5012839;28;20037;-71
2023/09/18 01:22:55;;;;;;;24.65;21.52;;;;;;;;;;5011844;28;20116;-71
2023/09/18 01:25:21;;;;;;;27.05;21.45;;;;;;;;;;5012189;28;20038;-71
2023/09/18 01:27:46;;;;;;;27.67;21.10;;;;;;;;;;5012383;28;20037;-71
2023/09/18 01:30:13;;;;;;;24.92;20.13;;;;;;;;;;5010798;28;20034;-71
2023/09/18 01:32:39;;;;;;;21.88;18.98;;;;;;;;;;5010823;28;20041;-71
2023/09/18 01:35:07;;;;;;;24.80;20.15;;;;;;;;;;5010741;28;20045;-71
2023/09/18 01:37:35;;;;;;;27.00;20.42;;;;;;;;;;5010549;28;20049;-71
2023/09/18 01:40:06;;;;;;;28.08;22.40;;;;;;;;;;5011052;28;20052;-71
2023/09/18 01:42:32;;;;;;;26.15;20.45;;;;;;;;;;5012327;28;20112;-71
2023/09/18 01:44:58;;;;;;;27.40;22.75;;;;;;;;;;5011339;28;20109;-71
2023/09/18 01:47:26;;;;;;;29.70;23.08;;;;;;;;;;5011861;28;20076;-71
2023/09/18 01:49:52;;;;;;;29.83;22.00;;;;;;;;;;5012400;28;20096;-71
2023/09/18 01:52:18;;;;;;;27.67;22.45;;;;;;;;;;5012011;28;20034;-71
2023/09/18 01:54:44;;;;;;;29.05;22.58;;;;;;;;;;5012351;28;20038;-71
2023/09/18 01:57:12;;;;;;;25.20;20.10;;;;;;;;;;5011704;28;20050;-71
2023/09/18 01:59:38;;;;;;;29.88;21.65;;;;;;;;;;5012007;28;20046;-71
2023/09/18 02:02:06;;;;;;;27.90;21.23;;;;;;;;;;5010589;28;20100;-71
2023/09/18 02:04:32;;;;;;;30.42;23.30;;;;;;;;;;5012183;28;20092;-71
2023/09/18 02:06:58;;;;;;;26.20;21.20;;;;;;;;;;5011824;28;20038;-71
2023/09/18 02:09:24;;;;;;;28.20;22.35;;;;;;;;;;5011513;28;20050;-71
2023/09/18 02:11:50;;;;;;;25.67;20.67;;;;;;;;;;5011858;28;20376;-71
2023/09/18 02:14:16;;;;;;;27.65;21.23;;;;;;;;;;5012013;28;20044;-71
2023/09/18 02:16:44;;;;;;;26.40;20.38;;;;;;;;;;5010740;28;20057;-71
2023/09/18 02:19:14;;;;;;;26.75;20.42;;;;;;;;;;5011666;28;20080;-71
2023/09/18 02:21:40;;;;;;;27.83;22.00;;;;;;;;;;5011899;28;20050;-71
2023/09/18 02:24:06;;;;;;;26.48;19.50;;;;;;;;;;5012146;28;20412;-71
2023/09/18 02:26:32;;;;;;;28.00;21.13;;;;;;;;;;5010599;28;20400;-71
2023/09/18 02:28:59;;;;;;;27.27;20.02;;;;;;;;;;5010529;28;20046;-71
2023/09/18 02:31:25;;;;;;;31.05;19.98;;;;;;;;;;5011947;28;20512;-71
2023/09/18 02:33:51;;;;;;;23.27;19.40;;;;;;;;;;5010707;28;20046;-71
2023/09/18 02:36:17;;;;;;;28.42;19.70;;;;;;;;;;5011077;28;20030;-71
2023/09/18 02:38:43;;;;;;;27.25;20.30;;;;;;;;;;5011698;28;20041;-71
2023/09/18 02:41:10;;;;;;;24.25;19.58;;;;;;;;;;5011828;28;20038;-71
2023/09/18 02:43:37;;;;;;;24.20;19.85;;;;;;;;;;5011274;28;20658;-71
2023/09/18 02:46:04;;;;;;;26.73;18.42;;;;;;;;;;5011791;28;20038;-71
2023/09/18 02:48:30;;;;;;;26.15;18.35;;;;;;;;;;5009808;28;20136;-71
2023/09/18 02:50:56;;;;;;;23.55;18.85;;;;;;;;;;5011267;28;20124;-71
2023/09/18 02:53:23;;;;;;;27.60;18.50;;;;;;;;;;5011472;28;20038;-71
2023/09/18 02:55:50;;;;;;;23.98;18.10;;;;;;;;;;5014072;28;20037;-71
2023/09/18 02:58:16;;;;;;;25.42;18.90;;;;;;;;;;5014634;28;20536;-71
2023/09/18 03:00:45;;;;;;;24.98;17.58;;;;;;;;;;5015314;28;20044;-72
2023/09/18 03:03:11;;;;;;;23.30;17.77;;;;;;;;;;5014815;28;20461;-72
2023/09/18 03:05:37;;;;;;;26.20;18.02;;;;;;;;;;5015194;28;20109;-72
2023/09/18 03:08:04;;;;;;;25.13;17.67;;;;;;;;;;5014177;28;20480;-72
2023/09/18 03:10:37;;;;;;;23.33;17.60;;;;;;;;;;5014826;28;20045;-72
2023/09/18 03:13:03;;;;;;;21.33;17.30;;;;;;;;;;5015314;28;20088;-72
2023/09/18 03:15:30;;;;;;;22.33;17.30;;;;;;;;;;5014128;28;20042;-72
2023/09/18 03:17:56;;;;;;;23.23;17.15;;;;;;;;;;5013375;28;20045;-72
2023/09/18 03:20:23;;;;;;;23.20;16.23;;;;;;;;;;5014906;28;20037;-72
2023/09/18 03:22:49;;;;;;;22.55;16.48;;;;;;;;;;5014434;28;20037;-72
2023/09/18 03:25:15;;;;;;;22.00;15.68;;;;;;;;;;5014458;28;20682;-72
2023/09/18 03:27:41;;;;;;;22.30;16.40;;;;;;;;;;5014359;28;20501;-72
2023/09/18 03:30:07;;;;;;;20.67;15.20;;;;;;;;;;5014826;28;20069;-72
2023/09/18 03:32:33;;;;;;;23.10;16.33;;;;;;;;;;5014000;28;20042;-73
2023/09/18 03:34:59;;;;;;;21.15;15.13;;;;;;;;;;5014648;28;20538;-70
2023/09/18 03:37:25;;;;;;;22.48;15.65;;;;;;;;;;5013054;28;20041;-70
2023/09/18 03:39:51;;;;;;;19.95;14.75;;;;;;;;;;5014678;28;20088;-70
2023/09/18 03:42:17;;;;;;;21.88;15.65;;;;;;;;;;5014046;28;20070;-70
2023/09/18 03:44:43;;;;;;;20.25;14.98;;;;;;;;;;5014539;28;20037;-70
2023/09/18 03:47:09;;;;;;;18.15;13.82;;;;;;;;;;5014194;28;20041;-70
2023/09/18 03:49:35;;;;;;;21.10;15.20;;;;;;;;;;5013513;28;20052;-70
2023/09/18 03:52:02;;;;;;;19.63;14.13;;;;;;;;;;5014286;28;20092;-70
2023/09/18 03:54:28;;;;;;;20.33;15.07;;;;;;;;;;5012631;28;20041;-70
2023/09/18 03:56:54;;;;;;;21.17;14.52;;;;;;;;;;5014189;28;20113;-70
2023/09/18 03:59:20;;;;;;;18.17;13.23;;;;;;;;;;5012522;28;20053;-71
2023/09/18 04:01:46;;;;;;;21.42;14.10;;;;;;;;;;5012732;28;20099;-71
2023/09/18 04:04:12;;;;;;;19.58;13.90;;;;;;;;;;5012206;28;20514;-71
2023/09/18 04:06:41;;;;;;;20.63;13.77;;;;;;;;;;5011115;28;20100;-72
2023/09/18 04:09:07;;;;;;;20.10;13.52;;;;;;;;;;5013986;28;20078;-72
2023/09/18 04:11:33;;;;;;;20.00;13.82;;;;;;;;;;5014041;28;20565;-72
2023/09/18 04:14:01;;;;;;;21.15;13.98;;;;;;;;;;5012584;28;20041;-72
2023/09/18 04:16:27;;;;;;;20.17;13.77;;;;;;;;;;5013344;28;20076;-72
2023/09/18 04:18:54;;;;;;;21.02;13.98;;;;;;;;;;5013577;28;20041;-72
2023/09/18 04:21:21;;;;;;;19.05;14.10;;;;;;;;;;5013307;28;20472;-72
2023/09/18 04:23:47;;;;;;;20.08;13.77;;;;;;;;;;5013346;28;20045;-72
2023/09/18 04:26:18;;;;;;;17.38;12.80;;;;;;;;;;5013505;28;20037;-72
2023/09/18 04:28:44;;;;;;;19.05;13.77;;;;;;;;;;5005971;28;20045;-72
2023/09/18 04:31:10;;;;;;;19.38;14.10;;;;;;;;;;5013206;28;20380;-72
2023/09/18 04:33:36;;;;;;;20.17;13.98;;;;;;;;;;5013117;28;20048;-72
2023/09/18 04:36:03;;;;;;;21.70;13.30;;;;;;;;;;5013640;28;20036;-72
2023/09/18 04:38:28;;;;;;;19.20;13.73;;;;;;;;;;5012799;28;20504;-72
2023/09/18 04:40:59;;;;;;;18.73;12.32;;;;;;;;;;5013475;28;20049;-72
2023/09/18 04:43:24;;;;;;;20.13;13.40;;;;;;;;;;5013117;28;20045;-72
2023/09/18 04:45:51;;;;;;;19.30;13.10;;;;;;;;;;5013238;28;20046;-72
2023/09/18 04:48:17;;;;;;;17.77;13.05;;;;;;;;;;5012276;28;20037;-72
2023/09/18 04:50:43;;;;;;;17.02;13.05;;;;;;;;;;5041243;22;20068;-66
2023/09/18 04:53:09;;;;;;;16.52;12.90;;;;;;;;;;5032595;28;20442;-66
2023/09/18 04:55:38;;;;;;;18.15;13.30;;;;;;;;;;5032426;28;20167;-66
2023/09/18 04:58:04;;;;;;;17.27;13.02;;;;;;;;;;5032471;28;20076;-66
2023/09/18 05:00:31;;;;;;;18.42;12.82;;;;;;;;;;5032973;28;20115;-66
2023/09/18 05:03:02;;;;;;;21.13;13.05;;;;;;;;;;5032757;28;20033;-66
2023/09/18 05:05:29;;;;;;;20.27;13.50;;;;;;;;;;5032391;28;20049;-67
2023/09/18 05:07:55;;;;;;;17.33;13.02;;;;;;;;;;5032591;28;20038;-66
2023/09/18 05:10:21;;;;;;;20.35;12.95;;;;;;;;;;5032680;28;20033;-66
2023/09/18 05:12:49;;;;;;;20.83;13.45;;;;;;;;;;5032279;28;20045;-66
2023/09/18 05:15:15;;;;;;;20.95;13.23;;;;;;;;;;5032157;28;20074;-66
2023/09/18 05:17:46;;;;;;;17.67;12.35;;;;;;;;;;5031799;28;20128;-66
2023/09/18 05:20:16;;;;;;;16.42;12.23;;;;;;;;;;5031926;28;20529;-66
2023/09/18 05:22:43;;;;;;;18.50;12.15;;;;;;;;;;5032808;28;20128;-66
2023/09/18 05:25:10;;;;;;;17.52;12.38;;;;;;;;;;5030390;28;20041;-67
2023/09/18 05:27:43;;;;;;;17.45;12.35;;;;;;;;;;5032115;28;20124;-66
2023/09/18 05:30:10;;;;;;;16.20;11.60;;;;;;;;;;5031441;28;20084;-66
2023/09/18 05:32:36;;;;;;;16.13;11.52;;;;;;;;;;5032277;28;20038;-66
2023/09/18 05:35:06;;;;;;;17.50;11.38;;;;;;;;;;5031917;28;20613;-66
2023/09/18 05:37:32;;;;;;;16.02;12.02;;;;;;;;;;5031767;28;20041;-66
2023/09/18 05:39:58;;;;;;;16.50;11.90;;;;;;;;;;5032130;28;20483;-66
2023/09/18 05:42:24;;;;;;;16.63;11.73;;;;;;;;;;5032111;28;20414;-66
2023/09/18 05:44:50;;;;;;;15.13;11.27;;;;;;;;;;5032169;28;20091;-66
2023/09/18 05:47:16;;;;;;;16.48;10.95;;;;;;;;;;5028440;28;20051;-66
2023/09/18 05:49:42;;;;;;;15.23;11.65;;;;;;;;;;5031485;28;20041;-66
2023/09/18 05:52:08;;;;;;;16.88;11.30;;;;;;;;;;5025756;28;20156;-66
2023/09/18 05:54:36;;;;;;;17.30;11.02;;;;;;;;;;5031100;28;20045;-66
2023/09/18 05:57:02;;;;;;;14.98;10.48;;;;;;;;;;5031789;28;20042;-66
2023/09/18 05:59:28;;;;;;;15.57;10.80;;;;;;;;;;5032280;28;20051;-66
2023/09/18 06:01:54;;;;;;;17.48;11.15;;;;;;;;;;5031913;28;20120;-66
2023/09/18 06:04:21;;;;;;;13.27;10.55;;;;;;;;;;5032012;28;20042;-66
2023/09/18 06:06:47;;;;;;;14.98;10.93;;;;;;;;;;5032046;28;20116;-66
2023/09/18 06:09:13;;;;;;;19.05;11.18;;;;;;;;;;5032153;28;20129;-66
2023/09/18 06:11:39;;;;;;;16.63;10.85;;;;;;;;;;5031537;28;20092;-66
2023/09/18 06:14:05;;;;;;;16.58;10.98;;;;;;;;;;5031933;28;20522;-66
2023/09/18 06:16:31;;;;;;;15.02;10.30;;;;;;;;;;5031926;28;20403;-66
2023/09/18 06:18:57;;;;;;;16.85;10.65;;;;;;;;;;5031432;28;20045;-66
2023/09/18 06:21:23;;;;;;;16.55;10.63;;;;;;;;;;5032069;28;20388;-66
2023/09/18 06:23:49;;;;;;;15.57;11.05;;;;;;;;;;5031928;28;20049;-66
2023/09/18 06:26:14;;;;;;;17.08;10.68;;;;;;;;;;5031628;28;20042;-66
2023/09/18 06:28:40;;;;;;;15.02;9.20;;;;;;;;;;5031588;28;20073;-66
2023/09/18 06:31:06;;;;;;;16.80;9.38;;;;;;;;;;5034986;28;20037;-66
2023/09/18 06:33:32;;;;;;;13.95;9.35;;;;;;;;;;5035951;28;20139;-66
2023/09/18 06:35:59;;;;;;;13.40;8.85;;;;;;;;;;5024875;28;20046;-66
2023/09/18 06:38:25;;;;;;;13.05;8.75;;;;;;;;;;5016130;28;20070;-66
2023/09/18 06:40:52;;;;;;;10.93;8.07;;;;;;;;;;5015470;28;20404;-66
2023/09/18 06:43:18;;;;;;;13.18;8.48;;;;;;;;;;5016198;28;20315;-66
2023/09/18 06:45:44;;;;;;;15.20;7.90;;;;;;;;;;5015291;28;20463;-66
2023/09/18 06:48:10;;;;;;;15.45;8.85;;;;;;;;;;5015583;28;20041;-66
2023/09/18 06:50:36;;;;;;;15.45;9.18;;;;;;;;;;5015193;28;20038;-66
2023/09/18 06:53:02;;;;;;;15.75;9.40;;;;;;;;;;5015250;28;20100;-66
2023/09/18 06:55:28;;;;;;;19.20;9.90;;;;;;;;;;5015059;28;20408;-66
2023/09/18 06:57:54;;;;;;;18.63;10.10;;;;;;;;;;5015681;28;20043;-68
2023/09/18 07:00:20;;;;;;;28.52;12.82;;;;;;;;;;5015088;28;20639;-68
2023/09/18 07:02:46;;;;;;;22.70;13.45;;;;;;;;;;5015532;28;20523;-68
2023/09/18 07:05:12;;;;;;;22.00;12.13;;;;;;;;;;5015069;28;20046;-68
2023/09/18 07:07:38;;;;;;;22.77;12.98;;;;;;;;;;5014984;28;20057;-68
2023/09/18 07:10:04;;;;;;;21.33;12.50;;;;;;;;;;5012923;28;20038;-68
2023/09/18 07:15:07;;;;;;;18.92;12.90;;;;;;;;;;5199693;23;20252;-72
2023/09/18 07:17:33;;;;;;;19.67;12.45;;;;;;;;;;5011305;28;20045;-72
2023/09/18 07:20:00;;;;;;;23.63;13.57;;;;;;;;;;5002694;28;20045;-71
2023/09/18 07:22:26;;;;;;;21.77;13.48;;;;;;;;;;5011635;28;20052;-71
2023/09/18 07:24:52;;;;;;;19.83;12.30;;;;;;;;;;5002182;28;20049;-71
2023/09/18 07:27:18;;;;;;;22.00;14.20;;;;;;;;;;5006647;23;20103;-67
2023/09/18 07:29:44;;;;;;;19.13;13.80;;;;;;;;;;5030267;28;20042;-70
2023/09/18 07:32:10;;;;;;;19.23;13.10;;;;;;;;;;5033237;28;20122;-70
2023/09/18 07:34:37;;;;;;;20.08;12.30;;;;;;;;;;5011006;28;20069;-70
2023/09/18 07:37:03;;;;;;;21.58;13.18;;;;;;;;;;5004519;28;20051;-70
2023/09/18 07:39:29;;;;;;;19.85;12.88;;;;;;;;;;5002874;28;20042;-70
2023/09/18 07:41:55;;;;;;;20.98;13.55;;;;;;;;;;5009327;28;20049;-70
2023/09/18 07:44:22;;;;;;;20.67;13.40;;;;;;;;;;5014239;28;20119;-70
2023/09/18 07:46:48;;;;;;;19.63;13.25;;;;;;;;;;5013767;28;20133;-70
2023/09/18 07:49:14;;;;;;;19.25;13.35;;;;;;;;;;5014922;28;20100;-70
2023/09/18 07:51:40;;;;;;;22.70;14.63;;;;;;;;;;5014376;28;20034;-71
2023/09/18 07:54:07;;;;;;;22.02;14.88;;;;;;;;;;5009316;28;20502;-70
2023/09/18 07:56:34;;;;;;;24.38;15.57;;;;;;;;;;5012776;28;20038;-70
2023/09/18 07:59:01;;;;;;;20.88;14.80;;;;;;;;;;5014381;28;20116;-70
2023/09/18 08:01:27;;;;;;;22.90;14.15;;;;;;;;;;5011163;28;20049;-70
2023/09/18 08:03:53;;;;;;;25.02;14.63;;;;;;;;;;5011121;28;20068;-71
2023/09/18 08:06:19;;;;;;;17.05;13.48;;;;;;;;;;5012519;28;20476;-71
2023/09/18 08:08:46;;;;;;;21.73;13.57;;;;;;;;;;5014022;28;20125;-71
2023/09/18 08:11:12;;;;;;;19.67;13.27;;;;;;;;;;5013099;28;20188;-71
2023/09/18 08:13:38;;;;;;;18.58;12.80;;;;;;;;;;5012344;28;20117;-71
2023/09/18 08:16:08;;;;;;;16.35;11.95;;;;;;;;;;5008451;28;20120;-71
2023/09/18 08:18:34;;;;;;;19.25;12.70;;;;;;;;;;5004114;28;20122;-71
2023/09/18 08:21:00;;;;;;;19.13;12.88;;;;;;;;;;5002623;28;20510;-70
2023/09/18 08:23:26;;;;;;;19.25;12.80;;;;;;;;;;5003573;28;20092;-71
2023/09/18 08:25:56;;;;;;;20.48;12.25;;;;;;;;;;5000601;28;20038;-70
2023/09/18 08:28:22;;;;;;;19.88;13.35;;;;;;;;;;5010357;28;20053;-71
2023/09/18 08:30:48;;;;;;;17.52;13.48;;;;;;;;;;5007692;28;20120;-71
2023/09/18 08:33:14;;;;;;;24.92;13.93;;;;;;;;;;5005158;28;20602;-71
2023/09/18 08:35:40;;;;;;;22.73;14.60;;;;;;;;;;5000435;28;20038;-71
2023/09/18 08:38:06;;;;;;;24.23;14.77;;;;;;;;;;5012158;28;20125;-70
2023/09/18 08:40:34;;;;;;;21.60;14.57;;;;;;;;;;5000002;28;20042;-70
2023/09/18 08:43:03;;;;;;;22.20;14.25;;;;;;;;;;5001296;28;20492;-71
2023/09/18 08:45:35;;;;;;;22.33;14.32;;;;;;;;;;4998202;28;20052;-70
2023/09/18 08:48:01;;;;;;;22.58;14.65;;;;;;;;;;5012937;28;20574;-70
2023/09/18 08:50:28;;;;;;;24.52;14.48;;;;;;;;;;5007958;28;20395;-71
2023/09/18 08:52:54;;;;;;;21.42;13.88;;;;;;;;;;5003081;28;20034;-71
2023/09/18 08:55:22;;;;;;;21.60;14.90;;;;;;;;;;5012724;28;20540;-71
2023/09/18 08:57:48;;;;;;;21.17;13.65;;;;;;;;;;5013015;28;20038;-71
2023/09/18 09:00:19;;;;;;;21.40;13.40;;;;;;;;;;5003274;28;20040;-70
2023/09/18 09:02:45;;;;;;;22.98;14.68;;;;;;;;;;5004258;28;20050;-71
2023/09/18 09:05:11;;;;;;;22.77;14.65;;;;;;;;;;5013139;28;20041;-70
2023/09/18 09:07:37;;;;;;;22.42;14.05;;;;;;;;;;5013037;28;20045;-71
2023/09/18 09:10:04;;;;;;;17.83;13.05;;;;;;;;;;5011246;28;20042;-70
2023/09/18 09:12:49;;;;;;;22.40;13.30;;;;;;;;;;5004344;28;20042;-70
2023/09/18 09:15:15;;;;;;;19.92;13.27;;;;;;;;;;5000201;28;20034;-71
2023/09/18 09:17:42;;;;;;;23.75;13.05;;;;;;;;;;4999027;28;20038;-71
2023/09/18 09:20:11;;;;;;;19.55;13.90;;;;;;;;;;4994141;28;20531;-70
2023/09/18 09:22:37;;;;;;;19.00;13.35;;;;;;;;;;5009701;28;20497;-71
2023/09/18 09:25:03;;;;;;;18.92;13.65;;;;;;;;;;5010417;28;20576;-71
2023/09/18 09:27:29;;;;;;;20.25;13.23;;;;;;;;;;5004848;28;20085;-70
2023/09/18 09:29:58;;;;;;;17.30;12.93;;;;;;;;;;5002390;28;20041;-70
2023/09/18 09:32:24;;;;;;;18.13;12.27;;;;;;;;;;5022013;28;20045;-70
2023/09/18 09:34:52;;;;;;;16.15;12.30;;;;;;;;;;5007495;28;20026;-71
2023/09/18 09:37:19;;;;;;;15.35;10.68;;;;;;;;;;5002451;28;20048;-70
2023/09/18 09:39:51;;;;;;;18.23;11.75;;;;;;;;;;4998363;28;20045;-71
2023/09/18 09:42:28;;;;;;;16.40;11.15;;;;;;;;;;5000975;28;20123;-71
2023/09/18 09:45:05;;;;;;;16.27;11.90;;;;;;;;;;5007513;28;20057;-71
2023/09/18 09:47:34;;;;;;;14.10;10.35;;;;;;;;;;5006739;28;20038;-71
2023/09/18 09:50:06;;;;;;;14.18;10.32;;;;;;;;;;4998728;28;20042;-71
2023/09/18 09:52:33;;;;;;;11.55;9.25;;;;;;;;;;4999092;28;20294;-70
2023/09/18 09:54:59;;;;;;;16.40;9.00;;;;;;;;;;4996498;28;20622;-71
2023/09/18 09:57:25;;;;;;;13.95;9.23;;;;;;;;;;4999261;28;20041;-71
2023/09/18 09:59:54;;;;;;;14.15;8.70;;;;;;;;;;4997332;28;20482;-71
2023/09/18 10:02:22;;;;;;;13.50;8.35;;;;;;;;;;4996164;28;20058;-71
2023/09/18 10:04:50;;;;;;;10.80;8.20;;;;;;;;;;4992084;28;20148;-71
2023/09/18 10:07:18;;;;;;;12.27;7.72;;;;;;;;;;5002881;28;20048;-71
2023/09/18 10:09:44;;;;;;;12.43;7.97;;;;;;;;;;5000386;28;20471;-71
2023/09/18 10:12:12;;;;;;;9.75;7.40;;;;;;;;;;4995079;28;20034;-71
2023/09/18 10:14:39;;;;;;;10.40;6.93;;;;;;;;;;5001235;28;20104;-71
2023/09/18 10:17:10;;;;;;;13.32;7.45;;;;;;;;;;4992471;28;20049;-71
2023/09/18 10:19:39;;;;;;;14.20;7.65;;;;;;;;;;4999532;28;20037;-71
2023/09/18 10:22:05;;;;;;;8.85;6.95;;;;;;;;;;4998159;28;20046;-71
2023/09/18 10:24:37;;;;;;;11.32;7.63;;;;;;;;;;5005618;28;20121;-71
2023/09/18 10:27:04;;;;;;;10.32;6.60;;;;;;;;;;5005891;28;20057;-71
2023/09/18 10:29:31;;;;;;;10.27;6.80;;;;;;;;;;5006783;28;20054;-70
2023/09/18 10:31:57;;;;;;;9.75;6.25;;;;;;;;;;5004862;28;20030;-72
2023/09/18 10:34:24;;;;;;;9.00;6.75;;;;;;;;;;5000525;28;20399;-72
2023/09/18 10:36:51;;;;;;;7.00;6.07;;;;;;;;;;5008669;28;20033;-72
2023/09/18 10:39:19;;;;;;;7.90;6.35;;;;;;;;;;5002445;28;20069;-71
2023/09/18 10:41:49;;;;;;;8.63;5.50;;;;;;;;;;5001141;28;20041;-72
2023/09/18 10:44:19;;;;;;;8.95;5.53;;;;;;;;;;5004603;28;20037;-71
2023/09/18 10:46:48;;;;;;;7.80;5.17;;;;;;;;;;4994094;28;20137;-71
2023/09/18 10:49:15;;;;;;;6.07;4.93;;;;;;;;;;4992080;28;20101;-71
2023/09/18 10:51:42;;;;;;;6.55;4.60;;;;;;;;;;5000889;28;20034;-72
2023/09/18 10:54:11;;;;;;;8.73;5.05;;;;;;;;;;4992422;28;20065;-71
2023/09/18 10:56:39;;;;;;;8.15;4.95;;;;;;;;;;4997410;28;20042;-71
2023/09/18 10:59:07;;;;;;;6.80;4.90;;;;;;;;;;4992558;28;20052;-72
2023/09/18 11:01:36;;;;;;;5.13;4.28;;;;;;;;;;5006948;28;20074;-72
2023/09/18 11:04:02;;;;;;;6.10;3.90;;;;;;;;;;4992107;28;20085;-72
2023/09/18 11:06:28;;;;;;;7.22;4.13;;;;;;;;;;4995914;28;20046;-71
2023/09/18 11:09:07;;;;;;;7.00;4.00;;;;;;;;;;4992964;28;20042;-72
2023/09/18 11:11:35;;;;;;;7.13;4.57;;;;;;;;;;4993547;28;20101;-72
2023/09/18 11:14:02;;;;;;;7.88;3.85;;;;;;;;;;4999153;28;20171;-72
2023/09/18 11:16:27;;;;;;;4.80;3.33;;;;;;;;;;4997528;28;20053;-71
2023/09/18 11:19:00;;;;;;;4.80;3.38;;;;;;;;;;4998675;28;20045;-71
2023/09/18 11:21:26;;;;;;;5.15;3.30;;;;;;;;;;4995459;28;20041;-71
2023/09/18 11:24:03;;;;;;;4.20;3.45;;;;;;;;;;5001913;28;20390;-71
2023/09/18 11:26:30;;;;;;;4.28;3.30;;;;;;;;;;5004473;28;20034;-71
2023/09/18 11:28:57;;;;;;;4.75;3.10;;;;;;;;;;4998870;28;20052;-71
2023/09/18 11:31:42;;;;;;;4.68;3.38;;;;;;;;;;5009763;28;20106;-71
2023/09/18 11:34:15;;;;;;;3.88;2.80;;;;;;;;;;4995915;28;20042;-71
2023/09/18 11:36:41;;;;;;;3.67;2.97;;;;;;;;;;4997398;28;20084;-71
2023/09/18 11:39:09;;;;;;;4.30;3.08;;;;;;;;;;4994893;28;20046;-71
2023/09/18 11:41:38;;;;;;;4.75;2.72;;;;;;;;;;5009933;28;20539;-71
2023/09/18 11:44:08;;;;;;;6.20;3.45;;;;;;;;;;4996722;28;20043;-72
2023/09/18 11:46:35;;;;;;;5.93;2.80;;;;;;;;;;5003947;28;20073;-72
2023/09/18 11:49:05;;;;;;;5.70;2.35;;;;;;;;;;5002458;28;20042;-72
2023/09/18 11:51:31;;;;;;;4.95;2.70;;;;;;;;;;4993701;28;20133;-71
2023/09/18 11:53:58;;;;;;;5.57;2.47;;;;;;;;;;4999879;28;20121;-71
2023/09/18 11:56:24;;;;;;;3.97;2.33;;;;;;;;;;5000391;28;20038;-71
2023/09/18 11:58:51;;;;;;;3.72;2.33;;;;;;;;;;4993768;28;20404;-72
2023/09/18 12:01:22;;;;;;;3.72;1.92;;;;;;;;;;4993508;28;20397;-71
2023/09/18 12:03:53;;;;;;;3.33;2.28;;;;;;;;;;4997801;28;20043;-71
2023/09/18 12:06:19;;;;;;;3.40;2.25;;;;;;;;;;4997401;28;20107;-71
2023/09/18 12:08:46;;;;;;;5.18;2.50;;;;;;;;;;5001641;28;20049;-71
2023/09/18 12:11:16;;;;;;;2.83;2.08;;;;;;;;;;4996096;28;20406;-72
2023/09/18 12:13:43;;;;;;;5.28;2.70;;;;;;;;;;5003275;28;20131;-72
2023/09/18 12:16:09;;;;;;;3.67;2.00;;;;;;;;;;5002344;28;20045;-71
2023/09/18 12:18:37;;;;;;;6.07;2.28;;;;;;;;;;5001817;28;20053;-72
2023/09/18 12:21:06;;;;;;;4.80;2.35;;;;;;;;;;4995976;28;20052;-71
2023/09/18 12:23:43;;;;;;;3.65;2.35;;;;;;;;;;4995774;28;20994;-71
2023/09/18 12:26:12;;;;;;;7.35;2.50;;;;;;;;;;5002637;28;20045;-71
2023/09/18 12:28:39;;;;;;;4.03;2.35;;;;;;;;;;4995911;28;20042;-71
2023/09/18 12:31:06;;;;;;;4.90;2.40;;;;;;;;;;4997988;28;20037;-71
2023/09/18 12:33:39;;;;;;;3.58;2.40;;;;;;;;;;5006237;28;20056;-71
2023/09/18 12:36:05;;;;;;;4.00;2.28;;;;;;;;;;5003125;28;20042;-71
2023/09/18 12:38:32;;;;;;;5.72;2.20;;;;;;;;;;4999230;28;20050;-71
2023/09/18 12:41:05;;;;;;;3.47;2.40;;;;;;;;;;5012016;28;20052;-71
2023/09/18 12:43:33;;;;;;;5.57;2.10;;;;;;;;;;5003108;28;20082;-71
2023/09/18 12:46:00;;;;;;;4.43;2.50;;;;;;;;;;5011050;28;20053;-71
2023/09/18 12:48:26;;;;;;;4.38;2.78;;;;;;;;;;4999542;28;20042;-71
2023/09/18 12:50:55;;;;;;;7.18;2.85;;;;;;;;;;5004106;28;20050;-71
2023/09/18 12:53:23;;;;;;;4.20;2.92;;;;;;;;;;5000765;28;20037;-71
2023/09/18 12:55:49;;;;;;;5.35;3.13;;;;;;;;;;4999556;28;20574;-71
2023/09/18 12:58:19;;;;;;;5.13;2.97;;;;;;;;;;5000897;28;20036;-71
2023/09/18 13:00:49;;;;;;;3.42;2.88;;;;;;;;;;5007711;28;20092;-71
2023/09/18 13:03:15;;;;;;;3.63;2.90;;;;;;;;;;4996272;28;20044;-71
2023/09/18 13:05:41;;;;;;;4.30;3.50;;;;;;;;;;5003904;28;20396;-71
2023/09/18 13:08:08;;;;;;;5.80;2.90;;;;;;;;;;4998008;28;20561;-71
2023/09/18 13:10:49;;;;;;;3.03;2.70;;;;;;;;;;5000414;28;20092;-71
2023/09/18 13:13:19;;;;;;;4.13;3.40;;;;;;;;;;4999338;28;20575;-71
2023/09/18 13:15:45;;;;;;;5.65;3.15;;;;;;;;;;5001211;28;20395;-71
2023/09/18 13:18:12;;;;;;;6.57;3.50;;;;;;;;;;5003858;28;20081;-71
2023/09/18 13:20:40;;;;;;;8.98;3.78;;;;;;;;;;4997672;28;20096;-71
2023/09/18 13:23:06;;;;;;;8.68;4.10;;;;;;;;;;5008428;28;20407;-71
2023/09/18 13:25:37;;;;;;;5.90;4.03;;;;;;;;;;4995048;28;20042;-71
2023/09/18 13:28:04;;;;;;;7.32;3.95;;;;;;;;;;5008908;28;20384;-71
2023/09/18 13:30:31;;;;;;;6.22;4.43;;;;;;;;;;5014340;28;20152;-71
2023/09/18 13:33:15;;;;;;;8.13;4.38;;;;;;;;;;4995165;28;20124;-71
2023/09/18 13:35:42;;;;;;;6.85;4.60;;;;;;;;;;4996479;28;20373;-71
2023/09/18 13:38:08;;;;;;;6.25;3.97;;;;;;;;;;4994816;28;20499;-71
2023/09/18 13:40:38;;;;;;;5.85;4.20;;;;;;;;;;4999554;28;20061;-71
2023/09/18 13:43:05;;;;;;;7.95;4.00;;;;;;;;;;4998486;28;20392;-70
2023/09/18 13:45:31;;;;;;;7.38;3.65;;;;;;;;;;5000233;28;20042;-71
2023/09/18 13:47:57;;;;;;;6.10;3.28;;;;;;;;;;4998629;28;20518;-71
2023/09/18 13:50:23;;;;;;;5.18;3.20;;;;;;;;;;4992674;28;20042;-71
2023/09/18 13:52:49;;;;;;;4.78;3.78;;;;;;;;;;5008832;28;20034;-71
2023/09/18 13:55:15;;;;;;;7.43;4.00;;;;;;;;;;5003985;28;20631;-71
2023/09/18 13:57:41;;;;;;;6.30;3.88;;;;;;;;;;5011297;28;20038;-71
2023/09/18 14:00:11;;;;;;;4.60;3.65;;;;;;;;;;5010526;28;20038;-71
2023/09/18 14:02:37;;;;;;;5.30;3.70;;;;;;;;;;5000676;28;20045;-71
2023/09/18 14:05:03;;;;;;;6.60;3.50;;;;;;;;;;5004871;28;20052;-71
2023/09/18 14:07:30;;;;;;;5.28;3.55;;;;;;;;;;4999957;28;20109;-71
2023/09/18 14:09:56;;;;;;;5.70;3.47;;;;;;;;;;5008774;28;20042;-71
2023/09/18 14:12:23;;;;;;;4.03;3.30;;;;;;;;;;5001389;28;20048;-71
2023/09/18 14:14:49;;;;;;;5.10;3.03;;;;;;;;;;4996416;28;20074;-70
2023/09/18 14:17:17;;;;;;;4.40;2.97;;;;;;;;;;4996789;28;20526;-70
2023/09/18 14:19:43;;;;;;;5.57;3.50;;;;;;;;;;4999131;28;20112;-71
2023/09/18 14:22:09;;;;;;;5.70;2.97;;;;;;;;;;4999032;28;20435;-70
2023/09/18 14:24:35;;;;;;;3.97;3.30;;;;;;;;;;4997767;28;20511;-70
2023/09/18 14:27:02;;;;;;;4.38;3.08;;;;;;;;;;5001060;28;20054;-70
2023/09/18 14:29:30;;;;;;;9.05;3.60;;;;;;;;;;5004971;28;20043;-70